Time;durP1;ratioP1;P1;durP2;ratioP2;P2;SDS_P1;SDS_P2;PMS_P1;PMS_P2;Temp;Humidity;BMP_temperature;BMP_pressure;BME280_temperature;BME280_humidity;BME280_pressure;Samples;Min_cycle;Max_cycle;Signal;HPM_P1;HPM_P2
2022/01/30 00:02:05;;;;;;;0.10;0.10;;;;;;;;;;1869252;76;27149;-53
2022/01/30 00:04:33;;;;;;;0.00;0.00;;;;;;;;;;1868136;75;26781;-51
2022/01/30 00:07:00;;;;;;;0.30;0.30;;;;;;;;;;1875310;75;26873;-46
2022/01/30 00:09:27;;;;;;;0.10;0.10;;;;;;;;;;1860858;75;26242;-48
2022/01/30 00:11:58;;;;;;;0.10;0.10;;;;;;;;;;1869272;75;26243;-45
2022/01/30 00:14:26;;;;;;;0.10;0.10;;;;;;;;;;1867828;76;26854;-45
2022/01/30 00:17:21;;;;;;;0.00;0.00;;;;;;;;;;1867034;75;26785;-46
2022/01/30 00:19:33;;;;;;;0.10;0.10;;;;;;;;;;1851704;75;26248;-43
2022/01/30 00:22:11;;;;;;;0.00;0.00;;;;;;;;;;1860044;76;26217;-47
2022/01/30 00:24:46;;;;;;;0.20;0.20;;;;;;;;;;1862891;76;26313;-47
2022/01/30 00:27:03;;;;;;;0.00;0.00;;;;;;;;;;1862826;76;26317;-45
2022/01/30 00:29:31;;;;;;;0.10;0.10;;;;;;;;;;1870475;75;26279;-46
2022/01/30 00:31:58;;;;;;;1.25;0.10;;;;;;;;;;1867491;76;26320;-56
2022/01/30 00:34:25;;;;;;;0.00;0.00;;;;;;;;;;1866257;76;26320;-49
2022/01/30 00:36:52;;;;;;;0.10;0.10;;;;;;;;;;1870296;75;26330;-45
2022/01/30 00:39:20;;;;;;;0.08;0.08;;;;;;;;;;1871705;76;26258;-49
2022/01/30 00:41:47;;;;;;;0.00;0.00;;;;;;;;;;1871571;75;26291;-45
2022/01/30 00:44:14;;;;;;;0.10;0.10;;;;;;;;;;1866738;76;26271;-45
2022/01/30 00:46:44;;;;;;;0.10;0.10;;;;;;;;;;1864657;76;26312;-45
2022/01/30 00:49:11;;;;;;;0.00;0.00;;;;;;;;;;1863340;76;26349;-54
2022/01/30 00:51:38;;;;;;;0.00;0.00;;;;;;;;;;1873944;75;26323;-54
2022/01/30 00:54:06;;;;;;;0.00;0.00;;;;;;;;;;1848835;76;26386;-53
2022/01/30 00:56:33;;;;;;;0.10;0.10;;;;;;;;;;1867240;75;26284;-49
2022/01/30 00:59:01;;;;;;;0.10;0.10;;;;;;;;;;1864407;75;25808;-43
2022/01/30 01:01:28;;;;;;;0.28;0.10;;;;;;;;;;1869129;76;26781;-43
2022/01/30 01:03:55;;;;;;;0.00;0.00;;;;;;;;;;1865724;76;26759;-44
2022/01/30 01:06:22;;;;;;;0.10;0.10;;;;;;;;;;1865731;75;26272;-48
2022/01/30 01:08:56;;;;;;;0.00;0.00;;;;;;;;;;1870626;76;26261;-45
2022/01/30 01:24:53;;;;;;;0.00;0.00;;;;;;;;;;1849070;76;26297;-51
2022/01/30 01:27:21;;;;;;;0.05;0.05;;;;;;;;;;1863902;76;26283;-53
2022/01/30 01:29:48;;;;;;;0.00;0.00;;;;;;;;;;1874330;75;26273;-52
2022/01/30 01:32:15;;;;;;;0.10;0.10;;;;;;;;;;1864806;75;26253;-51
2022/01/30 01:34:42;;;;;;;0.00;0.00;;;;;;;;;;1864251;75;26397;-48
2022/01/30 01:37:12;;;;;;;0.00;0.00;;;;;;;;;;1874276;76;26257;-44
2022/01/30 01:39:39;;;;;;;0.00;0.00;;;;;;;;;;1870253;75;26329;-55
2022/01/30 01:42:07;;;;;;;0.00;0.00;;;;;;;;;;1876587;76;26315;-45
2022/01/30 01:44:48;;;;;;;0.00;0.00;;;;;;;;;;1873094;75;25759;-46
2022/01/30 01:47:10;;;;;;;0.00;0.00;;;;;;;;;;1872965;76;26790;-52
2022/01/30 01:49:39;;;;;;;0.00;0.00;;;;;;;;;;1871116;75;26766;-43
2022/01/30 01:54:46;;;;;;;0.00;0.00;;;;;;;;;;1870206;76;26280;-47
2022/01/30 01:57:13;;;;;;;0.00;0.00;;;;;;;;;;1870570;76;26273;-50
2022/01/30 01:59:41;;;;;;;0.00;0.00;;;;;;;;;;1872421;76;26304;-45
2022/01/30 02:02:09;;;;;;;0.00;0.00;;;;;;;;;;1859700;76;26334;-49
2022/01/30 02:04:38;;;;;;;0.05;0.05;;;;;;;;;;1872029;76;26281;-44
2022/01/30 02:07:35;;;;;;;0.00;0.00;;;;;;;;;;1855701;76;26247;-48
2022/01/30 02:09:36;;;;;;;0.00;0.00;;;;;;;;;;1850927;76;25842;-49
2022/01/30 02:12:05;;;;;;;0.00;0.00;;;;;;;;;;1874128;76;26999;-48
2022/01/30 02:15:03;;;;;;;0.05;0.05;;;;;;;;;;1877357;76;26350;-45
2022/01/30 02:25:39;;;;;;;0.00;0.00;;;;;;;;;;1882817;75;26339;-44
2022/01/30 02:28:10;;;;;;;0.00;0.00;;;;;;;;;;1879370;76;26288;-44
2022/01/30 02:30:36;;;;;;;0.00;0.00;;;;;;;;;;1877048;74;26265;-44
2022/01/30 02:33:03;;;;;;;0.00;0.00;;;;;;;;;;1873295;76;26449;-48
2022/01/30 02:35:30;;;;;;;0.00;0.00;;;;;;;;;;1875056;75;26362;-46
2022/01/30 02:38:00;;;;;;;0.00;0.00;;;;;;;;;;1884354;76;26338;-46
2022/01/30 02:40:29;;;;;;;0.00;0.00;;;;;;;;;;1867346;76;26388;-44
2022/01/30 02:42:56;;;;;;;0.00;0.00;;;;;;;;;;1885981;76;26273;-44
2022/01/30 02:45:27;;;;;;;0.00;0.00;;;;;;;;;;1885865;76;26310;-43
2022/01/30 02:48:12;;;;;;;0.00;0.00;;;;;;;;;;1875368;76;26287;-45
2022/01/30 02:53:05;;;;;;;0.00;0.00;;;;;;;;;;1878747;76;26259;-46
2022/01/30 02:55:32;;;;;;;0.00;0.00;;;;;;;;;;1882247;76;26452;-51
2022/01/30 02:58:00;;;;;;;0.00;0.00;;;;;;;;;;1879460;76;26264;-46
2022/01/30 03:00:27;;;;;;;0.00;0.00;;;;;;;;;;1879664;76;26342;-56
2022/01/30 03:02:54;;;;;;;0.00;0.00;;;;;;;;;;1885773;75;26276;-51
2022/01/30 03:05:22;;;;;;;0.00;0.00;;;;;;;;;;1879697;76;26289;-49
2022/01/30 03:07:49;;;;;;;0.00;0.00;;;;;;;;;;1871678;76;26783;-49
2022/01/30 03:10:17;;;;;;;0.00;0.00;;;;;;;;;;1863143;76;26323;-48
2022/01/30 03:12:44;;;;;;;0.00;0.00;;;;;;;;;;1864982;75;26265;-47
2022/01/30 03:15:12;;;;;;;0.00;0.00;;;;;;;;;;1872872;76;26287;-48
2022/01/30 03:17:40;;;;;;;0.00;0.00;;;;;;;;;;1871558;76;26705;-46
2022/01/30 03:20:09;;;;;;;0.00;0.00;;;;;;;;;;1876730;75;25882;-46
2022/01/30 03:22:37;;;;;;;0.10;0.10;;;;;;;;;;1871042;76;26351;-46
2022/01/30 03:25:05;;;;;;;0.00;0.00;;;;;;;;;;1873285;76;26273;-48
2022/01/30 03:27:33;;;;;;;0.00;0.00;;;;;;;;;;1864099;76;26717;-43
2022/01/30 03:30:05;;;;;;;0.00;0.00;;;;;;;;;;1878523;76;26375;-46
2022/01/30 03:32:32;;;;;;;0.00;0.00;;;;;;;;;;1860097;76;26349;-45
2022/01/30 03:34:59;;;;;;;0.20;0.00;;;;;;;;;;1871826;76;26253;-45
2022/01/30 03:37:26;;;;;;;0.00;0.00;;;;;;;;;;1873768;75;26323;-46
2022/01/30 03:39:54;;;;;;;0.00;0.00;;;;;;;;;;1869213;76;26330;-45
2022/01/30 03:42:21;;;;;;;0.00;0.00;;;;;;;;;;1867965;76;26332;-46
2022/01/30 03:44:49;;;;;;;0.00;0.00;;;;;;;;;;1867885;76;26268;-45
2022/01/30 03:47:16;;;;;;;0.00;0.00;;;;;;;;;;1859603;76;26345;-50
2022/01/30 03:49:43;;;;;;;0.03;0.03;;;;;;;;;;1869861;76;26316;-44
2022/01/30 03:52:11;;;;;;;0.00;0.00;;;;;;;;;;1865488;76;26253;-52
2022/01/30 03:54:38;;;;;;;0.00;0.00;;;;;;;;;;1856514;76;26343;-46
2022/01/30 03:57:06;;;;;;;0.03;0.00;;;;;;;;;;1877654;76;26270;-48
2022/01/30 03:59:33;;;;;;;0.00;0.00;;;;;;;;;;1860501;76;26493;-43
2022/01/30 04:02:01;;;;;;;0.10;0.10;;;;;;;;;;1868981;76;26351;-43
2022/01/30 04:04:28;;;;;;;0.00;0.00;;;;;;;;;;1874180;76;26347;-45
2022/01/30 04:06:59;;;;;;;0.00;0.00;;;;;;;;;;1862135;76;26323;-46
2022/01/30 04:09:28;;;;;;;0.00;0.00;;;;;;;;;;1857448;76;26324;-49
2022/01/30 04:11:55;;;;;;;0.00;0.00;;;;;;;;;;1859946;76;26254;-47
2022/01/30 04:14:23;;;;;;;0.00;0.00;;;;;;;;;;1853378;76;27022;-49
2022/01/30 04:16:51;;;;;;;0.00;0.00;;;;;;;;;;1880059;76;26824;-46
2022/01/30 04:19:18;;;;;;;0.00;0.00;;;;;;;;;;1869068;76;26261;-51
2022/01/30 04:21:45;;;;;;;0.00;0.00;;;;;;;;;;1864199;76;26748;-48
2022/01/30 04:24:13;;;;;;;0.00;0.00;;;;;;;;;;1883398;76;26583;-51
2022/01/30 04:26:43;;;;;;;0.00;0.00;;;;;;;;;;1888338;75;26315;-47
2022/01/30 04:29:09;;;;;;;0.08;0.08;;;;;;;;;;1865452;76;27092;-45
2022/01/30 04:31:37;;;;;;;0.00;0.00;;;;;;;;;;1868458;76;26256;-46
2022/01/30 04:34:04;;;;;;;0.00;0.00;;;;;;;;;;1868187;76;26278;-44
2022/01/30 04:36:39;;;;;;;0.00;0.00;;;;;;;;;;1857711;76;26700;-51
2022/01/30 04:39:13;;;;;;;0.00;0.00;;;;;;;;;;1877797;76;26327;-49
2022/01/30 04:41:53;;;;;;;0.00;0.00;;;;;;;;;;1886544;76;26450;-47
2022/01/30 04:57:54;;;;;;;0.00;0.00;;;;;;;;;;1875224;76;26233;-48
2022/01/30 05:00:30;;;;;;;1.00;0.00;;;;;;;;;;1861039;76;26345;-48
2022/01/30 05:03:46;;;;;;;0.00;0.00;;;;;;;;;;1877137;76;26728;-44
2022/01/30 05:07:56;;;;;;;0.60;0.00;;;;;;;;;;1869889;76;26331;-49
2022/01/30 05:10:23;;;;;;;1.65;0.55;;;;;;;;;;1887496;75;26366;-46
2022/01/30 05:12:55;;;;;;;1.32;0.00;;;;;;;;;;1889074;75;27440;-51
2022/01/30 05:15:21;;;;;;;0.00;0.00;;;;;;;;;;1878249;76;26327;-49
2022/01/30 05:17:49;;;;;;;0.00;0.00;;;;;;;;;;1867044;76;26326;-52
2022/01/30 05:20:16;;;;;;;0.10;0.00;;;;;;;;;;1874198;74;26260;-46
2022/01/30 05:22:44;;;;;;;0.30;0.10;;;;;;;;;;1879978;76;26305;-43
2022/01/30 05:25:12;;;;;;;0.00;0.00;;;;;;;;;;1869541;76;26279;-49
2022/01/30 05:27:39;;;;;;;0.00;0.00;;;;;;;;;;1874152;76;26626;-47
2022/01/30 05:30:07;;;;;;;0.00;0.00;;;;;;;;;;1874843;76;26380;-43
2022/01/30 05:32:35;;;;;;;0.00;0.00;;;;;;;;;;1860891;75;26523;-50
2022/01/30 05:35:03;;;;;;;0.00;0.00;;;;;;;;;;1850506;76;26280;-47
2022/01/30 05:37:31;;;;;;;0.00;0.00;;;;;;;;;;1871764;75;26789;-43
2022/01/30 05:39:58;;;;;;;0.00;0.00;;;;;;;;;;1877493;76;26273;-45
2022/01/30 05:42:28;;;;;;;0.00;0.00;;;;;;;;;;1840529;76;26260;-46
2022/01/30 05:45:10;;;;;;;0.10;0.10;;;;;;;;;;1864340;76;26237;-43
2022/01/30 05:47:34;;;;;;;0.30;0.10;;;;;;;;;;1855934;76;26284;-50
2022/01/30 05:49:57;;;;;;;0.00;0.00;;;;;;;;;;1873469;75;26269;-42
2022/01/30 05:52:25;;;;;;;0.10;0.10;;;;;;;;;;1856533;76;26358;-49
2022/01/30 05:54:52;;;;;;;0.00;0.00;;;;;;;;;;1862252;76;26276;-49
2022/01/30 05:57:19;;;;;;;0.08;0.08;;;;;;;;;;1871370;76;26819;-51
2022/01/30 05:59:46;;;;;;;0.10;0.10;;;;;;;;;;1857696;76;27314;-46
2022/01/30 06:02:14;;;;;;;0.00;0.00;;;;;;;;;;1865988;76;26722;-52
2022/01/30 06:04:41;;;;;;;0.00;0.00;;;;;;;;;;1865093;76;28052;-46
2022/01/30 06:07:10;;;;;;;0.28;0.10;;;;;;;;;;1864068;76;26363;-55
2022/01/30 06:09:38;;;;;;;0.17;0.10;;;;;;;;;;1869236;76;26234;-50
2022/01/30 06:12:05;;;;;;;0.10;0.10;;;;;;;;;;1865266;76;26215;-49
2022/01/30 06:14:33;;;;;;;0.90;0.10;;;;;;;;;;1864807;76;26392;-48
2022/01/30 06:17:00;;;;;;;0.90;0.20;;;;;;;;;;1872604;76;26293;-46
2022/01/30 06:19:28;;;;;;;0.25;0.10;;;;;;;;;;1873809;76;26321;-51
2022/01/30 06:21:55;;;;;;;0.00;0.00;;;;;;;;;;1866996;76;26265;-42
2022/01/30 06:24:22;;;;;;;0.00;0.00;;;;;;;;;;1878534;76;26328;-47
2022/01/30 06:26:49;;;;;;;0.00;0.00;;;;;;;;;;1883618;76;26596;-48
2022/01/30 06:29:17;;;;;;;0.00;0.00;;;;;;;;;;1876539;76;26416;-44
2022/01/30 06:31:44;;;;;;;0.10;0.10;;;;;;;;;;1883655;76;26272;-56
2022/01/30 06:34:11;;;;;;;0.00;0.00;;;;;;;;;;1884709;76;26258;-54
2022/01/30 06:36:39;;;;;;;0.00;0.00;;;;;;;;;;1884801;76;26358;-57
2022/01/30 06:39:06;;;;;;;0.00;0.00;;;;;;;;;;1877312;76;27428;-45
2022/01/30 06:41:33;;;;;;;0.00;0.00;;;;;;;;;;1881205;76;26289;-48
2022/01/30 06:44:00;;;;;;;0.08;0.08;;;;;;;;;;1877313;76;26728;-45
2022/01/30 06:46:28;;;;;;;0.20;0.00;;;;;;;;;;1883696;76;26671;-43
2022/01/30 06:48:55;;;;;;;0.10;0.10;;;;;;;;;;1882169;76;26264;-50
2022/01/30 06:51:22;;;;;;;0.00;0.00;;;;;;;;;;1877904;76;26242;-48
2022/01/30 06:53:50;;;;;;;0.00;0.00;;;;;;;;;;1869033;76;26204;-47
2022/01/30 06:56:17;;;;;;;0.08;0.00;;;;;;;;;;1883059;76;26362;-47
2022/01/30 06:58:44;;;;;;;0.20;0.10;;;;;;;;;;1885905;76;26339;-43
2022/01/30 07:01:11;;;;;;;0.23;0.00;;;;;;;;;;1882835;76;26209;-49
2022/01/30 07:03:39;;;;;;;0.10;0.10;;;;;;;;;;1876445;76;26328;-57
2022/01/30 07:06:06;;;;;;;0.30;0.05;;;;;;;;;;1883204;75;26257;-45
2022/01/30 07:08:33;;;;;;;0.20;0.10;;;;;;;;;;1888700;76;26276;-48
2022/01/30 07:11:00;;;;;;;0.00;0.00;;;;;;;;;;1872633;76;26342;-49
2022/01/30 07:13:28;;;;;;;0.10;0.10;;;;;;;;;;1876816;76;26306;-43
2022/01/30 07:15:55;;;;;;;0.05;0.05;;;;;;;;;;1868011;76;26857;-45
2022/01/30 07:18:23;;;;;;;0.10;0.10;;;;;;;;;;1882076;76;26714;-48
2022/01/30 07:20:50;;;;;;;0.10;0.08;;;;;;;;;;1875582;76;26320;-49
2022/01/30 07:23:17;;;;;;;0.08;0.08;;;;;;;;;;1877585;76;26722;-48
2022/01/30 07:25:44;;;;;;;0.05;0.05;;;;;;;;;;1881736;76;26371;-48
2022/01/30 07:28:12;;;;;;;0.00;0.00;;;;;;;;;;1879031;75;26252;-47
2022/01/30 07:30:39;;;;;;;0.00;0.00;;;;;;;;;;1887468;76;26264;-46
2022/01/30 07:33:06;;;;;;;3.90;0.20;;;;;;;;;;1883313;76;26625;-46
2022/01/30 07:35:37;;;;;;;0.25;0.10;;;;;;;;;;1876593;76;26767;-45
2022/01/30 07:38:04;;;;;;;0.20;0.10;;;;;;;;;;1873974;76;26600;-44
2022/01/30 07:40:33;;;;;;;0.65;0.10;;;;;;;;;;1881233;76;27309;-43
2022/01/30 07:43:01;;;;;;;1.37;0.10;;;;;;;;;;1868999;76;26277;-47
2022/01/30 07:45:28;;;;;;;0.00;0.00;;;;;;;;;;1866846;76;26369;-49
2022/01/30 07:47:55;;;;;;;0.10;0.10;;;;;;;;;;1879492;76;26277;-45
2022/01/30 07:50:23;;;;;;;1.55;0.00;;;;;;;;;;1869725;76;26254;-47
2022/01/30 07:52:50;;;;;;;0.13;0.13;;;;;;;;;;1885653;76;26600;-49
2022/01/30 07:55:19;;;;;;;0.20;0.10;;;;;;;;;;1883318;76;26741;-52
2022/01/30 07:57:46;;;;;;;0.10;0.10;;;;;;;;;;1877557;76;26309;-48
2022/01/30 08:00:14;;;;;;;0.37;0.23;;;;;;;;;;1875261;76;26264;-49
2022/01/30 08:02:41;;;;;;;0.40;0.00;;;;;;;;;;1880090;76;26237;-46
2022/01/30 08:05:09;;;;;;;0.20;0.10;;;;;;;;;;1878552;76;26273;-49
2022/01/30 08:07:38;;;;;;;0.15;0.15;;;;;;;;;;1876407;76;26319;-48
2022/01/30 08:10:06;;;;;;;0.30;0.10;;;;;;;;;;1879102;76;26854;-47
2022/01/30 08:12:33;;;;;;;0.25;0.15;;;;;;;;;;1874666;76;26694;-43
2022/01/30 08:15:00;;;;;;;0.00;0.00;;;;;;;;;;1883375;76;26855;-47
2022/01/30 08:17:28;;;;;;;0.00;0.00;;;;;;;;;;1873467;76;26851;-49
2022/01/30 08:19:55;;;;;;;0.13;0.10;;;;;;;;;;1875447;76;26351;-44
2022/01/30 08:22:22;;;;;;;0.10;0.10;;;;;;;;;;1879743;75;26272;-56
2022/01/30 08:24:50;;;;;;;0.10;0.10;;;;;;;;;;1877910;76;26308;-44
2022/01/30 08:27:17;;;;;;;0.20;0.20;;;;;;;;;;1879821;76;26272;-45
2022/01/30 08:29:44;;;;;;;0.40;0.40;;;;;;;;;;1871823;76;26838;-49
2022/01/30 08:32:11;;;;;;;0.50;0.50;;;;;;;;;;1880978;76;26729;-48
2022/01/30 08:34:40;;;;;;;0.60;0.60;;;;;;;;;;1875085;76;26264;-45
2022/01/30 08:37:07;;;;;;;0.50;0.50;;;;;;;;;;1878028;76;26698;-54
2022/01/30 08:39:35;;;;;;;0.80;0.80;;;;;;;;;;1881314;76;26311;-50
2022/01/30 08:42:03;;;;;;;1.00;1.00;;;;;;;;;;1878491;76;26814;-43
2022/01/30 08:44:30;;;;;;;0.90;0.90;;;;;;;;;;1875084;76;26320;-46
2022/01/30 08:46:57;;;;;;;2.52;1.10;;;;;;;;;;1868324;76;26273;-48
2022/01/30 08:49:24;;;;;;;0.90;0.90;;;;;;;;;;1877058;76;26268;-47
2022/01/30 08:51:52;;;;;;;0.90;0.90;;;;;;;;;;1885111;76;26252;-57
2022/01/30 08:54:19;;;;;;;1.00;1.00;;;;;;;;;;1882430;76;26265;-48
2022/01/30 08:56:47;;;;;;;1.20;1.20;;;;;;;;;;1878882;76;26359;-44
2022/01/30 08:59:14;;;;;;;0.90;0.90;;;;;;;;;;1881860;76;26749;-53
2022/01/30 09:01:42;;;;;;;1.00;1.00;;;;;;;;;;1878157;76;26742;-49
2022/01/30 09:04:11;;;;;;;0.93;0.93;;;;;;;;;;1877903;76;26312;-44
2022/01/30 09:06:38;;;;;;;0.90;0.90;;;;;;;;;;1871674;76;26410;-49
2022/01/30 09:09:06;;;;;;;1.00;1.00;;;;;;;;;;1886803;74;26300;-52
2022/01/30 09:11:34;;;;;;;0.95;0.95;;;;;;;;;;1871133;76;26339;-48
2022/01/30 09:14:02;;;;;;;1.07;1.07;;;;;;;;;;1880881;76;26984;-54
2022/01/30 09:16:29;;;;;;;0.90;0.90;;;;;;;;;;1865942;76;26389;-46
2022/01/30 09:18:57;;;;;;;1.00;1.00;;;;;;;;;;1885763;76;26261;-47
2022/01/30 09:21:24;;;;;;;0.80;0.80;;;;;;;;;;1879966;76;26320;-51
2022/01/30 09:23:51;;;;;;;0.85;0.85;;;;;;;;;;1877573;76;26406;-45
2022/01/30 09:26:19;;;;;;;0.80;0.80;;;;;;;;;;1871629;75;27490;-45
2022/01/30 09:28:47;;;;;;;0.78;0.78;;;;;;;;;;1884515;75;26266;-47
2022/01/30 09:31:15;;;;;;;0.90;0.90;;;;;;;;;;1889492;75;26287;-45
2022/01/30 09:33:42;;;;;;;0.70;0.70;;;;;;;;;;1895598;75;26604;-48
2022/01/30 09:36:09;;;;;;;1.80;0.70;;;;;;;;;;1891603;75;26879;-46
2022/01/30 09:38:36;;;;;;;0.65;0.65;;;;;;;;;;1873773;75;26748;-47
2022/01/30 09:41:05;;;;;;;0.72;0.72;;;;;;;;;;1864114;75;26271;-46
2022/01/30 09:43:34;;;;;;;0.70;0.70;;;;;;;;;;1888842;75;26760;-46
2022/01/30 09:46:02;;;;;;;0.60;0.60;;;;;;;;;;1881076;75;26290;-46
2022/01/30 09:48:31;;;;;;;0.70;0.70;;;;;;;;;;1880174;75;26306;-52
2022/01/30 09:50:58;;;;;;;0.50;0.50;;;;;;;;;;1871990;75;26252;-44
2022/01/30 09:53:26;;;;;;;0.70;0.70;;;;;;;;;;1878593;75;26707;-46
2022/01/30 09:55:53;;;;;;;0.60;0.60;;;;;;;;;;1895633;75;26637;-46
2022/01/30 09:58:20;;;;;;;1.75;0.60;;;;;;;;;;1884636;75;26259;-47
2022/01/30 10:00:47;;;;;;;0.65;0.60;;;;;;;;;;1880038;75;26253;-45
2022/01/30 10:03:22;;;;;;;0.53;0.53;;;;;;;;;;1877022;75;26622;-43
2022/01/30 10:06:07;;;;;;;1.30;0.60;;;;;;;;;;1878267;75;26279;-47
2022/01/30 10:08:43;;;;;;;0.60;0.60;;;;;;;;;;1882492;75;26257;-45
2022/01/30 10:11:26;;;;;;;1.05;0.60;;;;;;;;;;1874492;75;26402;-52
2022/01/30 10:13:34;;;;;;;0.57;0.57;;;;;;;;;;1869645;75;26755;-46
2022/01/30 10:16:04;;;;;;;0.50;0.50;;;;;;;;;;1894358;75;26248;-47
2022/01/30 10:18:35;;;;;;;0.40;0.40;;;;;;;;;;1894740;75;26292;-47
2022/01/30 10:21:01;;;;;;;0.40;0.40;;;;;;;;;;1893221;75;26698;-48
2022/01/30 10:23:33;;;;;;;0.60;0.60;;;;;;;;;;1894462;75;26264;-48
2022/01/30 10:26:01;;;;;;;0.60;0.60;;;;;;;;;;1877049;75;26300;-43
2022/01/30 10:28:31;;;;;;;0.45;0.45;;;;;;;;;;1877064;75;26272;-43
2022/01/30 10:31:00;;;;;;;0.40;0.40;;;;;;;;;;1876789;76;26249;-48
2022/01/30 10:33:40;;;;;;;0.20;0.20;;;;;;;;;;1889610;76;26408;-46
2022/01/30 10:36:09;;;;;;;0.40;0.40;;;;;;;;;;1880140;76;26782;-49
2022/01/30 10:38:39;;;;;;;0.50;0.50;;;;;;;;;;1888183;76;26284;-45
2022/01/30 10:41:17;;;;;;;0.37;0.37;;;;;;;;;;1889047;76;26280;-45
2022/01/30 10:43:50;;;;;;;0.35;0.35;;;;;;;;;;1875694;76;26367;-49
2022/01/30 10:46:22;;;;;;;0.30;0.30;;;;;;;;;;1880950;76;26257;-48
2022/01/30 10:48:56;;;;;;;0.30;0.30;;;;;;;;;;1880596;76;26735;-50
2022/01/30 10:51:24;;;;;;;0.42;0.42;;;;;;;;;;1889109;76;26249;-47
2022/01/30 10:53:52;;;;;;;0.30;0.30;;;;;;;;;;1887270;76;26308;-46
2022/01/30 10:56:25;;;;;;;0.40;0.40;;;;;;;;;;1886385;76;26343;-46
2022/01/30 10:59:09;;;;;;;0.30;0.30;;;;;;;;;;1883414;76;26280;-47
2022/01/30 11:01:38;;;;;;;0.40;0.40;;;;;;;;;;1881842;76;26668;-43
2022/01/30 11:04:06;;;;;;;0.30;0.30;;;;;;;;;;1876719;75;26700;-46
2022/01/30 11:06:34;;;;;;;0.25;0.25;;;;;;;;;;1887027;76;26289;-52
2022/01/30 11:09:06;;;;;;;0.20;0.20;;;;;;;;;;1870937;76;26268;-48
2022/01/30 11:11:45;;;;;;;0.20;0.20;;;;;;;;;;1872808;76;25678;-49
2022/01/30 11:19:25;;;;;;;0.23;0.23;;;;;;;;;;1877071;76;26254;-51
2022/01/30 11:21:55;;;;;;;0.20;0.20;;;;;;;;;;1880229;76;26729;-53
2022/01/30 11:24:24;;;;;;;0.20;0.20;;;;;;;;;;1875322;76;26311;-51
2022/01/30 11:26:51;;;;;;;0.20;0.20;;;;;;;;;;1879568;76;26717;-43
2022/01/30 11:29:22;;;;;;;0.20;0.20;;;;;;;;;;1874719;75;26342;-51
2022/01/30 11:31:50;;;;;;;0.30;0.30;;;;;;;;;;1875795;76;26799;-50
2022/01/30 11:34:17;;;;;;;0.10;0.10;;;;;;;;;;1879231;76;26252;-51
2022/01/30 11:36:48;;;;;;;0.10;0.10;;;;;;;;;;1874506;76;26705;-46
2022/01/30 11:39:16;;;;;;;0.30;0.20;;;;;;;;;;1875863;76;26378;-47
2022/01/30 11:41:45;;;;;;;1.30;0.30;;;;;;;;;;1874540;76;26274;-45
2022/01/30 11:44:20;;;;;;;1.10;0.23;;;;;;;;;;1875975;76;26261;-45
2022/01/30 11:46:52;;;;;;;0.10;0.10;;;;;;;;;;1873614;76;27335;-50
2022/01/30 11:49:20;;;;;;;0.20;0.20;;;;;;;;;;1878041;76;26350;-54
2022/01/30 11:51:48;;;;;;;0.55;0.17;;;;;;;;;;1873427;76;26517;-54
2022/01/30 11:54:34;;;;;;;0.13;0.13;;;;;;;;;;1876218;76;26328;-49
2022/01/30 11:57:01;;;;;;;3.40;0.42;;;;;;;;;;1868904;76;26218;-45
2022/01/30 11:59:36;;;;;;;3.40;0.20;;;;;;;;;;1880156;76;26339;-56
2022/01/30 12:02:14;;;;;;;1.87;0.10;;;;;;;;;;1881007;75;26820;-53
2022/01/30 12:04:54;;;;;;;6.75;0.23;;;;;;;;;;1841849;75;26327;-51
2022/01/30 12:07:23;;;;;;;0.10;0.10;;;;;;;;;;1877658;76;26319;-44
2022/01/30 12:09:50;;;;;;;2.15;0.20;;;;;;;;;;1879165;76;26276;-43
2022/01/30 12:12:18;;;;;;;0.75;0.20;;;;;;;;;;1874021;76;26283;-50
2022/01/30 12:14:46;;;;;;;0.28;0.28;;;;;;;;;;1878859;75;26368;-45
2022/01/30 12:17:13;;;;;;;0.90;0.10;;;;;;;;;;1868479;76;26723;-50
2022/01/30 12:19:44;;;;;;;0.10;0.10;;;;;;;;;;1874664;76;26244;-51
2022/01/30 12:22:18;;;;;;;0.30;0.10;;;;;;;;;;1875831;76;26222;-43
2022/01/30 12:24:47;;;;;;;0.85;0.20;;;;;;;;;;1877614;76;26257;-44
2022/01/30 12:27:15;;;;;;;0.10;0.10;;;;;;;;;;1879347;76;26637;-51
2022/01/30 12:29:44;;;;;;;0.10;0.10;;;;;;;;;;1860842;76;26266;-47
2022/01/30 12:32:25;;;;;;;0.13;0.13;;;;;;;;;;1862362;76;26326;-43
2022/01/30 12:34:57;;;;;;;0.20;0.20;;;;;;;;;;1871488;76;26278;-46
2022/01/30 12:37:37;;;;;;;0.55;0.10;;;;;;;;;;1863716;76;26293;-50
2022/01/30 12:40:12;;;;;;;0.20;0.20;;;;;;;;;;1867839;76;26830;-43
2022/01/30 12:42:39;;;;;;;0.20;0.20;;;;;;;;;;1864968;76;27453;-47
2022/01/30 12:45:09;;;;;;;0.75;0.17;;;;;;;;;;1873538;76;26252;-48
2022/01/30 12:47:47;;;;;;;2.60;0.10;;;;;;;;;;1862950;76;26273;-45
2022/01/30 12:50:15;;;;;;;1.10;0.20;;;;;;;;;;1862697;76;26909;-45
2022/01/30 12:52:47;;;;;;;0.30;0.10;;;;;;;;;;1864234;76;26272;-48
2022/01/30 12:55:12;;;;;;;0.15;0.15;;;;;;;;;;1865231;76;26265;-47
2022/01/30 12:57:43;;;;;;;0.20;0.20;;;;;;;;;;1872731;76;26383;-42
2022/01/30 13:00:12;;;;;;;0.30;0.30;;;;;;;;;;1862476;76;26655;-49
2022/01/30 13:02:39;;;;;;;1.10;0.30;;;;;;;;;;1870182;75;26643;-43
2022/01/30 13:05:11;;;;;;;0.30;0.30;;;;;;;;;;1875907;76;26284;-45
2022/01/30 13:07:38;;;;;;;0.20;0.20;;;;;;;;;;1861697;76;26298;-45
2022/01/30 13:10:06;;;;;;;0.35;0.13;;;;;;;;;;1863161;76;26245;-48
2022/01/30 13:12:34;;;;;;;0.13;0.13;;;;;;;;;;1868947;76;26257;-49
2022/01/30 13:15:02;;;;;;;0.20;0.20;;;;;;;;;;1870111;76;26257;-46
2022/01/30 13:17:30;;;;;;;1.00;0.13;;;;;;;;;;1858172;76;26281;-50
2022/01/30 13:19:57;;;;;;;0.10;0.10;;;;;;;;;;1872828;76;26261;-48
2022/01/30 13:22:29;;;;;;;0.20;0.20;;;;;;;;;;1870940;76;26241;-47
2022/01/30 13:24:57;;;;;;;0.20;0.20;;;;;;;;;;1872098;76;26558;-45
2022/01/30 13:27:25;;;;;;;0.47;0.45;;;;;;;;;;1863757;76;26307;-43
2022/01/30 13:29:55;;;;;;;7.85;3.65;;;;;;;;;;1867721;76;26261;-44
2022/01/30 13:32:24;;;;;;;11.43;6.37;;;;;;;;;;1865097;76;26332;-48
2022/01/30 13:34:51;;;;;;;17.45;7.87;;;;;;;;;;1868787;76;26542;-48
2022/01/30 13:37:20;;;;;;;14.93;8.53;;;;;;;;;;1860640;76;26720;-47
2022/01/30 13:39:59;;;;;;;16.75;9.33;;;;;;;;;;1857564;76;26305;-44
2022/01/30 13:46:54;;;;;;;21.00;11.05;;;;;;;;;;1867455;76;26343;-47
2022/01/30 13:47:34;;;;;;;21.50;10.98;;;;;;;;;;1848915;76;26815;-48
2022/01/30 13:50:01;;;;;;;22.80;10.95;;;;;;;;;;1862857;76;25663;-47
2022/01/30 13:52:32;;;;;;;22.32;11.50;;;;;;;;;;1866932;76;26335;-47
2022/01/30 13:55:00;;;;;;;23.18;11.80;;;;;;;;;;1855100;76;26301;-45
2022/01/30 13:57:32;;;;;;;21.95;11.35;;;;;;;;;;1854575;76;26240;-47
2022/01/30 14:00:12;;;;;;;23.02;11.53;;;;;;;;;;1868441;76;26308;-46
2022/01/30 14:02:54;;;;;;;20.15;11.18;;;;;;;;;;1865688;76;26302;-44
2022/01/30 14:05:23;;;;;;;19.48;10.80;;;;;;;;;;1866633;75;27075;-47
2022/01/30 14:07:51;;;;;;;19.50;10.65;;;;;;;;;;1871478;76;26268;-47
2022/01/30 14:10:21;;;;;;;17.67;10.23;;;;;;;;;;1864576;76;25717;-44
2022/01/30 14:12:51;;;;;;;15.48;9.08;;;;;;;;;;1861920;76;26572;-44
2022/01/30 14:15:20;;;;;;;16.23;8.80;;;;;;;;;;1869096;76;26333;-51
2022/01/30 14:17:49;;;;;;;15.08;8.43;;;;;;;;;;1855415;76;26265;-43
2022/01/30 14:20:20;;;;;;;15.15;8.05;;;;;;;;;;1868351;76;26605;-47
2022/01/30 14:22:47;;;;;;;14.03;7.67;;;;;;;;;;1867076;76;27541;-46
2022/01/30 14:25:18;;;;;;;14.85;7.65;;;;;;;;;;1863100;76;26728;-44
2022/01/30 14:27:43;;;;;;;11.97;6.92;;;;;;;;;;1873157;75;26289;-45
2022/01/30 14:30:11;;;;;;;13.05;6.70;;;;;;;;;;1867540;76;26831;-47
2022/01/30 14:32:41;;;;;;;12.10;6.28;;;;;;;;;;1862827;76;26260;-47
2022/01/30 14:35:09;;;;;;;10.60;5.87;;;;;;;;;;1867110;76;26848;-47
2022/01/30 14:37:38;;;;;;;9.93;5.70;;;;;;;;;;1883761;76;26634;-46
2022/01/30 14:40:07;;;;;;;7.15;4.75;;;;;;;;;;1879914;76;26358;-47
2022/01/30 14:42:34;;;;;;;7.80;4.67;;;;;;;;;;1871092;76;26687;-49
2022/01/30 14:45:03;;;;;;;7.05;4.37;;;;;;;;;;1875481;76;26251;-47
2022/01/30 14:47:30;;;;;;;6.87;4.17;;;;;;;;;;1872958;76;26299;-51
2022/01/30 14:49:57;;;;;;;6.33;4.03;;;;;;;;;;1874178;76;26260;-47
2022/01/30 14:52:25;;;;;;;8.00;4.53;;;;;;;;;;1871995;76;26266;-43
2022/01/30 14:54:52;;;;;;;8.40;4.45;;;;;;;;;;1875301;76;26256;-46
2022/01/30 14:57:22;;;;;;;8.48;5.03;;;;;;;;;;1878202;76;26768;-48
2022/01/30 14:59:49;;;;;;;11.25;5.87;;;;;;;;;;1870091;75;26297;-44
2022/01/30 15:02:16;;;;;;;16.15;8.08;;;;;;;;;;1870765;76;26331;-45
2022/01/30 15:04:43;;;;;;;21.90;8.68;;;;;;;;;;1873967;75;26776;-43
2022/01/30 15:07:11;;;;;;;23.60;10.08;;;;;;;;;;1888899;76;27291;-46
2022/01/30 15:09:38;;;;;;;28.25;10.93;;;;;;;;;;1872452;74;26798;-47
2022/01/30 15:12:06;;;;;;;34.80;12.98;;;;;;;;;;1876973;76;26263;-49
2022/01/30 15:14:37;;;;;;;33.18;12.80;;;;;;;;;;1872819;76;26596;-46
2022/01/30 15:17:05;;;;;;;37.95;14.43;;;;;;;;;;1869724;76;26396;-45
2022/01/30 15:19:33;;;;;;;38.42;15.03;;;;;;;;;;1873750;76;26296;-47
2022/01/30 15:22:02;;;;;;;42.73;16.07;;;;;;;;;;1880444;76;26245;-46
2022/01/30 15:24:29;;;;;;;44.75;16.93;;;;;;;;;;1875213;76;26265;-48
2022/01/30 15:26:56;;;;;;;45.20;16.42;;;;;;;;;;1886262;76;26390;-48
2022/01/30 15:29:23;;;;;;;44.48;15.68;;;;;;;;;;1883247;76;26257;-50
2022/01/30 15:31:51;;;;;;;39.85;14.93;;;;;;;;;;1880934;76;26724;-50
2022/01/30 15:34:18;;;;;;;41.37;14.45;;;;;;;;;;1877553;76;26756;-54
2022/01/30 15:36:45;;;;;;;36.93;14.40;;;;;;;;;;1879259;76;26736;-50
2022/01/30 15:39:13;;;;;;;30.60;12.75;;;;;;;;;;1879169;75;26267;-50
2022/01/30 15:41:40;;;;;;;35.80;12.58;;;;;;;;;;1875860;76;26264;-52